EAGO2: Mountain Fork Riv, Eagletown,

                                SHEF ID:       EAGO2     Mountain Fork near Eagletown, OK
STATION TYPE: Stream Gauge
Regulating: Stage = 9.00, Flow = 9433

PRECIP STAGE RIV-FLOW WTR-TEMP BAT-LOAD
in ft cfs F volt
Ccp-Rev Ccp-Rev Ccp-Rev Ccp-Rev Ccp-Rev
(America/Chicago)
05/02 00:00 0.00 1.27 284 65.80 12.01
05/02 01:00 0.00 1.24 275 65.62 12.01
05/02 02:00 0.00 1.22 268 65.37 12.01
05/02 03:00 0.00 1.20 262 65.10 11.93
05/02 04:00 0.00 1.18 256 64.78 11.86
05/02 05:00 0.00 1.16 250 64.36 11.77
05/02 06:00 0.00 1.15 247 63.90 11.77
05/02 07:00 0.00 1.13 241 63.52 11.77
05/02 08:00 0.00 1.11 235 63.21 12.09
05/02 09:00 0.00 1.11 235 62.96 12.89
05/02 10:00 0.00 1.09 229 63.14 12.97
05/02 11:00 0.00 1.08 226 63.52 12.81
05/02 12:00 0.00 1.02 210 64.17 12.49
05/02 13:00 0.00 1.05 218 64.94 12.49
05/02 14:00 0.00 1.03 213 65.55 12.57
05/02 15:00 0.00 1.02 210 65.95 12.49
05/02 16:00 0.00 1.01 207 66.18 12.41
05/02 17:00 0.00 0.99 202 66.43 12.41
05/02 18:00 0.00 0.98 200 66.52 12.33
05/02 19:00 0.00 0.97 197 66.51 12.41
05/02 20:00 0.00 0.96 195 66.40 12.25
05/02 21:00 0.00 0.95 193 66.27 12.09
05/02 22:00 0.00 0.95 193 66.20 12.01
05/02 23:00 0.00 0.95 193 66.20 11.93
Data processed at Sun 03May2026 04:39 GMT

NOTICE: If you are parsing this page

Please convert to using our Data API. Starting early 2026 we will be migrating to: https://water.usace.army.mil with modern pages rendered in JavaScript. When this migration completes you will no longer be able to scrape this page! CWMSDataAPI (CDA)

Timeseries IDs (TSIDs)

TSIDs used from left to right in the data table
EAGL.Precip-Inc.Total.1Hour.1Hour.Ccp-Rev
EAGL.Stage.Inst.1Hour.0.Ccp-Rev
EAGL.Flow.Inst.1Hour.0.Ccp-Rev
EAGL.Temp-Water.Inst.1Hour.0.Ccp-Rev
EAGL.Volt-Battery Load.Inst.1Hour.0.Ccp-Rev

                            

All information presented herein is the property of the government of the United States of America and may be revised or deleted at any time without prior notice. Dissemination of this information without the expressed written consent of the Public Affairs Office, Tulsa District U.S. Army Corps of Engineers is strictly prohibited. These data are gathered electronically and, as presented, have NOT undergone any form of quality control. These data are NOT guaranteed to be valid or correct.